createdAt,value
2022-08-05T00:00:46.223Z,15.68
2022-08-05T00:03:15.596Z,13.68
2022-08-05T00:06:06.385Z,13.05
2022-08-05T00:08:34.625Z,10.32
2022-08-05T00:11:01.334Z,10.57
2022-08-05T00:13:38.295Z,11.52
2022-08-05T00:16:06.306Z,13.57
2022-08-05T00:18:32.859Z,12.45
2022-08-05T00:20:57.084Z,10.00
2022-08-05T00:23:44.340Z,9.90
2022-08-05T00:26:07.336Z,13.93
2022-08-05T00:28:31.049Z,9.32
2022-08-05T00:30:56.755Z,10.60
2022-08-05T00:34:55.523Z,13.48
2022-08-05T00:36:16.530Z,12.77
2022-08-05T00:38:55.849Z,9.90
2022-08-05T00:41:52.165Z,11.60
2022-08-05T00:44:16.694Z,13.70
2022-08-05T00:46:42.634Z,11.38
2022-08-05T00:49:07.802Z,11.05
2022-08-05T00:51:50.559Z,9.60
2022-08-05T00:54:15.746Z,11.50
2022-08-05T00:56:47.061Z,14.75
2022-08-05T00:59:15.358Z,10.65
2022-08-05T01:01:42.637Z,12.48
2022-08-05T01:04:14.253Z,10.68
2022-08-05T01:06:39.392Z,14.15
2022-08-05T01:09:06.303Z,10.93
2022-08-05T01:11:37.217Z,8.02
2022-08-05T01:14:15.346Z,11.70
2022-08-05T01:16:47.252Z,11.32
2022-08-05T01:19:56.470Z,8.32
2022-08-05T01:22:41.975Z,9.45
2022-08-05T01:25:53.513Z,14.95
2022-08-05T01:28:28.353Z,8.85
2022-08-05T01:30:58.028Z,12.90
2022-08-05T01:33:26.330Z,12.07
2022-08-05T01:35:53.262Z,8.98
2022-08-05T01:38:27.016Z,12.90
2022-08-05T01:40:55.757Z,15.98
2022-08-05T01:43:24.118Z,9.55
2022-08-05T01:45:56.111Z,10.70
2022-08-05T01:48:22.284Z,10.65
2022-08-05T01:50:50.980Z,11.38
2022-08-05T01:53:54.993Z,8.93
2022-08-05T01:56:04.923Z,6.45
2022-08-05T01:58:41.070Z,7.35
2022-08-05T02:01:16.139Z,7.85
2022-08-05T02:03:50.381Z,11.07
2022-08-05T02:06:37.825Z,8.13
2022-08-05T02:08:59.411Z,12.50
2022-08-05T02:11:24.112Z,9.10
2022-08-05T02:14:12.490Z,8.07
2022-08-05T02:16:46.903Z,6.25
2022-08-05T02:19:27.232Z,7.25
2022-08-05T02:21:57.380Z,6.78
2022-08-05T02:24:29.251Z,8.95
2022-08-05T02:26:57.888Z,8.60
2022-08-05T02:29:59.966Z,7.15
2022-08-05T02:32:23.913Z,5.70
2022-08-05T02:34:54.933Z,10.65
2022-08-05T02:37:20.578Z,10.05
2022-08-05T02:39:47.725Z,7.90
2022-08-05T02:42:25.827Z,10.38
2022-08-05T02:44:52.728Z,7.68
2022-08-05T02:47:18.723Z,10.60
2022-08-05T02:49:44.571Z,7.20
2022-08-05T02:52:25.793Z,9.40
2022-08-05T02:54:54.589Z,12.23
2022-08-05T02:58:11.823Z,6.53
2022-08-05T03:00:06.841Z,9.38
2022-08-05T03:02:36.645Z,7.93
2022-08-05T03:05:01.308Z,8.02
2022-08-05T03:08:00.670Z,9.82
2022-08-05T03:10:13.406Z,7.13
2022-08-05T03:12:39.894Z,9.02
2022-08-05T03:15:06.984Z,6.40
2022-08-05T03:17:34.400Z,9.95
2022-08-05T03:20:07.128Z,6.55
2022-08-05T03:22:34.113Z,9.77
2022-08-05T03:25:02.097Z,10.13
2022-08-05T03:27:57.957Z,6.00
2022-08-05T03:30:20.877Z,7.15
2022-08-05T03:32:56.460Z,5.80
2022-08-05T03:35:20.540Z,10.93
2022-08-05T03:37:46.002Z,14.00
2022-08-05T03:40:13.159Z,12.30
2022-08-05T03:42:41.583Z,11.77
2022-08-05T03:45:22.057Z,11.40
2022-08-05T03:47:46.692Z,13.38
2022-08-05T03:50:14.610Z,26.63
2022-08-05T03:55:50.834Z,15.90
2022-08-05T03:56:04.593Z,9.68
2022-08-05T03:58:28.938Z,34.03
2022-08-05T04:00:54.691Z,21.10
2022-08-05T04:03:28.594Z,34.20
2022-08-05T04:05:54.731Z,21.48
2022-08-05T04:08:34.712Z,17.63
2022-08-05T04:11:01.060Z,32.55
2022-08-05T04:13:25.553Z,13.25
2022-08-05T04:16:03.353Z,10.15
2022-08-05T04:18:29.019Z,6.45
2022-08-05T04:20:59.095Z,7.03
2022-08-05T04:24:04.910Z,6.72
2022-08-05T04:26:09.220Z,9.00
2022-08-05T04:28:37.372Z,6.93
2022-08-05T04:31:15.116Z,6.75
2022-08-05T04:34:19.341Z,7.68
2022-08-05T04:36:46.610Z,6.20
2022-08-05T04:39:08.906Z,9.25
2022-08-05T04:41:37.192Z,8.73
2022-08-05T04:44:02.501Z,13.07
2022-08-05T04:46:33.572Z,8.85
2022-08-05T04:48:58.734Z,7.78
2022-08-05T04:51:24.083Z,6.28
2022-08-05T04:53:48.500Z,8.43
2022-08-05T04:56:33.742Z,6.07
2022-08-05T04:58:56.045Z,8.88
2022-08-05T05:02:05.970Z,7.38
2022-08-05T05:04:04.688Z,6.68
2022-08-05T05:06:39.000Z,6.07
2022-08-05T05:09:08.017Z,9.15
2022-08-05T05:11:41.593Z,6.18
2022-08-05T05:14:16.319Z,6.15
2022-08-05T05:16:40.071Z,8.25
2022-08-05T05:19:18.671Z,5.80
2022-08-05T05:21:44.759Z,7.25
2022-08-05T05:24:10.409Z,7.65
2022-08-05T05:26:34.954Z,7.00
2022-08-05T05:28:59.332Z,7.72
2022-08-05T05:31:23.277Z,8.25
2022-08-05T05:33:59.697Z,8.82
2022-08-05T05:36:25.612Z,14.93
2022-08-05T05:38:54.033Z,13.38
2022-08-05T05:41:18.520Z,9.32
2022-08-05T05:43:56.872Z,14.15
2022-08-05T05:46:24.180Z,11.45
2022-08-05T05:48:49.172Z,9.65
2022-08-05T05:51:15.587Z,8.70
2022-08-05T05:53:54.323Z,9.00
2022-08-05T05:56:26.200Z,8.65
2022-08-05T05:58:57.217Z,8.10
2022-08-05T06:01:30.374Z,7.72
2022-08-05T06:04:03.938Z,10.15
2022-08-05T06:06:31.029Z,9.80
2022-08-05T06:08:55.200Z,8.48
2022-08-05T06:11:19.315Z,9.95
2022-08-05T06:13:50.533Z,9.18
2022-08-05T06:16:28.192Z,11.50
2022-08-05T06:18:55.831Z,9.77
2022-08-05T06:21:23.871Z,9.90
2022-08-05T06:24:00.085Z,12.65
2022-08-05T06:26:25.436Z,10.40
2022-08-05T06:28:57.094Z,12.30
2022-08-05T06:31:22.028Z,7.63
2022-08-05T06:34:07.263Z,6.72
2022-08-05T06:36:30.015Z,10.38
2022-08-05T06:39:13.847Z,8.27
2022-08-05T06:41:41.287Z,5.65
2022-08-05T06:44:06.820Z,5.85
2022-08-05T06:46:30.727Z,7.68
2022-08-05T06:48:58.856Z,7.07
2022-08-05T06:51:29.084Z,4.28
2022-08-05T06:53:54.088Z,8.70
2022-08-05T06:56:26.313Z,6.28
2022-08-05T06:58:50.684Z,5.50
2022-08-05T07:01:15.863Z,5.85
2022-08-05T07:03:44.880Z,7.00
2022-08-05T07:06:14.422Z,5.30
2022-08-05T07:08:39.015Z,5.82
2022-08-05T07:11:06.229Z,4.32
2022-08-05T07:13:59.839Z,5.78
2022-08-05T07:18:01.402Z,4.93
2022-08-05T07:20:05.819Z,3.80
2022-08-05T07:22:10.688Z,5.55
2022-08-05T07:24:43.721Z,4.80
2022-08-05T07:27:16.049Z,5.43
2022-08-05T07:30:23.909Z,5.82
2022-08-05T07:32:26.291Z,5.35
2022-08-05T07:34:50.187Z,4.72
2022-08-05T07:37:21.872Z,6.03
2022-08-05T07:40:27.050Z,7.32
2022-08-05T07:42:33.776Z,8.00
2022-08-05T07:44:57.796Z,4.80
2022-08-05T07:47:25.827Z,6.85
2022-08-05T07:49:54.216Z,6.72
2022-08-05T07:52:18.419Z,6.28
2022-08-05T07:54:47.625Z,6.05
2022-08-05T07:57:50.581Z,8.27
2022-08-05T07:59:57.788Z,10.90
2022-08-05T08:02:31.241Z,6.75
2022-08-05T08:05:12.533Z,5.13
2022-08-05T08:07:39.425Z,7.53
2022-08-05T08:10:03.768Z,6.22
2022-08-05T08:12:37.959Z,5.43
2022-08-05T08:15:15.842Z,7.50
2022-08-05T08:17:46.261Z,4.65
2022-08-05T08:20:42.795Z,8.15
2022-08-05T08:23:03.299Z,5.78
2022-08-05T08:26:00.031Z,7.20
2022-08-05T08:28:18.779Z,5.50
2022-08-05T08:30:56.868Z,4.63
2022-08-05T08:33:22.776Z,5.65
2022-08-05T08:35:52.691Z,6.00
2022-08-05T08:38:18.247Z,8.60
2022-08-05T08:41:01.099Z,5.88
2022-08-05T08:45:17.009Z,5.68
2022-08-05T08:46:15.645Z,5.00
2022-08-05T08:49:06.077Z,6.63
2022-08-05T08:52:03.127Z,6.78
2022-08-05T08:54:17.556Z,5.40
2022-08-05T08:56:47.907Z,6.75
2022-08-05T08:59:19.333Z,6.53
2022-08-05T09:01:44.929Z,6.45
2022-08-05T09:04:23.185Z,5.38
2022-08-05T09:06:54.565Z,4.07
2022-08-05T09:09:18.373Z,5.03
2022-08-05T09:11:53.091Z,6.97
2022-08-05T09:14:57.953Z,5.50
2022-08-05T09:17:09.448Z,4.97
2022-08-05T09:20:01.826Z,4.65
2022-08-05T09:22:31.810Z,4.45
2022-08-05T09:25:00.423Z,4.40
2022-08-05T09:28:04.081Z,6.30
2022-08-05T09:30:19.122Z,6.18
2022-08-05T09:32:47.376Z,5.60
2022-08-05T09:35:26.303Z,7.38
2022-08-05T09:38:16.459Z,7.85
2022-08-05T09:40:51.857Z,5.53
2022-08-05T09:43:40.588Z,5.22
2022-08-05T09:46:11.975Z,7.78
2022-08-05T09:48:39.716Z,5.03
2022-08-05T09:51:15.352Z,5.55
2022-08-05T09:53:54.327Z,8.52
2022-08-05T09:56:27.092Z,4.78
2022-08-05T09:59:04.093Z,5.03
2022-08-05T10:01:32.595Z,8.40
2022-08-05T10:04:00.434Z,7.32
2022-08-05T10:06:25.821Z,7.40
2022-08-05T10:08:50.291Z,9.80
2022-08-05T10:11:18.968Z,4.10
2022-08-05T10:13:47.836Z,9.07
2022-08-05T10:16:33.975Z,7.13
2022-08-05T10:18:58.489Z,5.38
2022-08-05T10:21:23.020Z,5.60
2022-08-05T10:23:59.375Z,7.15
2022-08-05T10:26:32.759Z,6.97
2022-08-05T10:28:57.798Z,4.57
2022-08-05T10:32:53.603Z,5.20
2022-08-05T10:34:08.144Z,5.60
2022-08-05T10:36:32.190Z,4.65
2022-08-05T10:39:10.305Z,5.25
2022-08-05T10:41:47.805Z,7.18
2022-08-05T10:44:15.012Z,6.35
2022-08-05T10:46:50.945Z,5.88
2022-08-05T10:49:18.647Z,5.32
2022-08-05T10:52:00.237Z,4.78
2022-08-05T10:54:56.786Z,4.43
2022-08-05T10:57:31.701Z,6.45
2022-08-05T11:00:19.842Z,4.32
2022-08-05T11:03:24.419Z,8.18
2022-08-05T11:06:15.450Z,6.28
2022-08-05T11:09:16.723Z,5.53
2022-08-05T11:11:52.811Z,4.95
2022-08-05T11:14:57.886Z,3.30
2022-08-05T11:17:58.705Z,3.63
2022-08-05T11:20:41.756Z,5.35
2022-08-05T11:24:04.787Z,3.83
2022-08-05T11:26:28.857Z,3.72
2022-08-05T11:29:06.854Z,4.28
2022-08-05T11:31:58.660Z,4.15
2022-08-05T11:34:38.485Z,5.38
2022-08-05T11:37:02.569Z,6.13
2022-08-05T11:39:55.259Z,3.47
2022-08-05T11:42:28.018Z,5.13
2022-08-05T11:44:56.336Z,4.07
2022-08-05T11:47:49.340Z,3.50
2022-08-05T11:50:09.983Z,5.60
2022-08-05T11:52:38.289Z,4.57
2022-08-05T11:55:07.603Z,7.38
2022-08-05T11:57:39.331Z,3.28
2022-08-05T12:00:30.421Z,3.97
2022-08-05T12:02:54.385Z,4.75
2022-08-05T12:05:36.382Z,4.10
2022-08-05T12:08:11.254Z,3.58
2022-08-05T12:10:43.839Z,5.00
2022-08-05T12:13:15.491Z,3.10
2022-08-05T12:15:45.342Z,3.90
2022-08-05T12:18:20.559Z,3.08
2022-08-05T12:20:44.543Z,3.13
2022-08-05T12:23:10.483Z,2.55
2022-08-05T12:25:50.343Z,2.95
2022-08-05T12:28:15.089Z,2.80
2022-08-05T12:30:45.715Z,5.68
2022-08-05T12:33:27.806Z,3.38
2022-08-05T12:35:53.999Z,3.53
2022-08-05T12:38:18.016Z,4.72
2022-08-05T12:40:46.286Z,2.92
2022-08-05T12:43:10.037Z,2.55
2022-08-05T12:45:42.724Z,2.97
2022-08-05T12:48:27.369Z,2.53
2022-08-05T12:52:10.299Z,4.90
2022-08-05T12:54:03.325Z,5.43
2022-08-05T12:56:35.405Z,5.28
2022-08-05T12:59:21.121Z,2.70
2022-08-05T13:02:07.354Z,3.58
2022-08-05T13:04:34.752Z,3.08
2022-08-05T13:07:10.931Z,2.20
2022-08-05T13:09:41.268Z,3.25
2022-08-05T13:12:16.101Z,2.58
2022-08-05T13:14:42.617Z,3.55
2022-08-05T13:17:11.487Z,5.45
2022-08-05T13:19:51.631Z,4.50
2022-08-05T13:22:28.503Z,4.47
2022-08-05T13:24:58.113Z,3.78
2022-08-05T13:27:37.458Z,3.15
2022-08-05T13:30:34.254Z,4.50
2022-08-05T13:32:50.616Z,3.60
2022-08-05T13:35:31.333Z,2.80
2022-08-05T13:38:04.866Z,3.30
2022-08-05T13:40:47.977Z,5.47
2022-08-05T13:43:13.759Z,5.00
2022-08-05T13:45:45.990Z,3.17
2022-08-05T13:48:57.792Z,2.92
2022-08-05T13:50:56.204Z,3.03
2022-08-05T13:53:20.312Z,3.13
2022-08-05T13:55:50.104Z,5.50
2022-08-05T13:58:30.972Z,5.78
2022-08-05T14:00:54.977Z,4.63
2022-08-05T14:03:18.693Z,2.72
2022-08-05T14:06:24.595Z,4.85
2022-08-05T14:08:27.468Z,5.53
2022-08-05T14:10:52.101Z,7.30
2022-08-05T14:13:16.284Z,4.30
2022-08-05T14:16:08.865Z,4.70
2022-08-05T14:18:24.183Z,4.40
2022-08-05T14:20:48.683Z,5.85
2022-08-05T14:23:12.616Z,4.18
2022-08-05T14:25:45.100Z,3.05
2022-08-05T14:28:09.145Z,3.33
2022-08-05T14:30:49.867Z,3.85
2022-08-05T14:33:22.872Z,7.03
2022-08-05T14:35:51.918Z,4.65
2022-08-05T14:38:32.558Z,3.22
2022-08-05T14:41:01.129Z,4.72
2022-08-05T14:43:59.243Z,4.00
2022-08-05T14:46:08.860Z,5.18
2022-08-05T14:48:33.756Z,5.90
2022-08-05T14:50:57.852Z,4.93
2022-08-05T14:53:21.636Z,5.43
2022-08-05T14:55:52.091Z,5.38
2022-08-05T14:58:17.796Z,4.30
2022-08-05T15:00:59.467Z,5.80
2022-08-05T15:03:24.011Z,4.85
2022-08-05T15:06:06.907Z,4.53
2022-08-05T15:08:37.967Z,4.50
2022-08-05T15:11:16.058Z,4.78
2022-08-05T15:13:46.049Z,4.93
2022-08-05T15:16:14.404Z,5.15
2022-08-05T15:18:38.630Z,6.07
2022-08-05T15:21:07.400Z,5.18
2022-08-05T15:23:31.756Z,7.45
2022-08-05T15:25:59.724Z,4.30
2022-08-05T15:28:27.335Z,5.13
2022-08-05T15:30:53.595Z,5.18
2022-08-05T15:34:04.126Z,8.70
2022-08-05T15:36:03.622Z,6.03
2022-08-05T15:38:34.708Z,5.45
2022-08-05T15:41:22.322Z,6.20
2022-08-05T15:43:45.935Z,6.45
2022-08-05T15:46:12.316Z,5.13
2022-08-05T15:48:36.779Z,4.75
2022-08-05T15:51:03.601Z,5.00
2022-08-05T15:53:38.293Z,6.20
2022-08-05T15:56:14.417Z,5.25
2022-08-05T15:58:38.232Z,9.25
2022-08-05T16:01:11.560Z,5.78
2022-08-05T16:03:42.678Z,6.85
2022-08-05T16:06:07.211Z,6.05
2022-08-05T16:08:35.551Z,5.75
2022-08-05T16:10:59.552Z,4.13
2022-08-05T16:13:24.102Z,5.18
2022-08-05T16:15:58.005Z,5.50
2022-08-05T16:18:21.792Z,4.93
2022-08-05T16:20:54.147Z,5.68
2022-08-05T16:23:17.830Z,6.07
2022-08-05T16:25:41.647Z,7.22
2022-08-05T16:28:06.579Z,13.27
2022-08-05T16:30:34.220Z,7.90
2022-08-05T16:33:00.567Z,8.10
2022-08-05T16:35:27.567Z,7.47
2022-08-05T16:38:15.643Z,4.35
2022-08-05T16:40:37.722Z,9.98
2022-08-05T16:43:01.484Z,5.30
2022-08-05T16:46:03.790Z,3.60
2022-08-05T16:48:10.884Z,3.63
2022-08-05T16:50:49.388Z,5.53
2022-08-05T16:53:22.971Z,4.57
2022-08-05T16:55:56.381Z,2.25
2022-08-05T16:58:20.552Z,2.80
2022-08-05T17:00:44.366Z,3.63
2022-08-05T17:03:19.798Z,2.97
2022-08-05T17:05:44.152Z,2.95
2022-08-05T17:08:16.903Z,2.10
2022-08-05T17:11:00.416Z,1.70
2022-08-05T17:13:37.278Z,2.40
2022-08-05T17:16:28.114Z,6.32
2022-08-05T17:18:49.911Z,2.58
2022-08-05T17:21:13.640Z,5.95
2022-08-05T17:24:04.664Z,3.53
2022-08-05T17:26:24.697Z,3.05
2022-08-05T17:28:50.845Z,3.70
2022-08-05T17:31:24.658Z,3.50
2022-08-05T17:33:58.466Z,10.80
2022-08-05T17:36:33.682Z,5.18
2022-08-05T17:39:01.619Z,3.65
2022-08-05T17:42:18.901Z,2.60
2022-08-05T17:44:11.145Z,2.45
2022-08-05T17:46:35.016Z,1.70
2022-08-05T17:48:59.238Z,0.80
2022-08-05T17:51:23.196Z,1.45
2022-08-05T17:53:54.473Z,4.85
2022-08-05T17:56:20.016Z,0.80
2022-08-05T17:58:46.366Z,0.95
2022-08-05T18:01:10.192Z,1.42
2022-08-05T18:04:03.785Z,2.38
2022-08-05T18:06:18.475Z,1.10
2022-08-05T18:08:53.115Z,2.70
2022-08-05T18:11:24.550Z,1.60
2022-08-05T18:13:56.572Z,1.88
2022-08-05T18:16:23.493Z,1.38
2022-08-05T18:18:48.070Z,1.85
2022-08-05T18:21:19.959Z,4.32
2022-08-05T18:23:45.628Z,1.92
2022-08-05T18:26:10.733Z,1.30
2022-08-05T18:28:35.920Z,2.58
2022-08-05T18:30:59.760Z,1.10
2022-08-05T18:33:24.332Z,1.23
2022-08-05T18:35:59.971Z,1.40
2022-08-05T18:38:27.872Z,1.90
2022-08-05T18:41:57.226Z,1.05
2022-08-05T18:43:43.106Z,1.67
2022-08-05T18:46:12.736Z,1.20
2022-08-05T18:48:36.779Z,1.23
2022-08-05T18:52:02.937Z,2.30
2022-08-05T18:54:07.167Z,1.55
2022-08-05T18:56:32.684Z,2.88
2022-08-05T18:59:01.237Z,4.50
2022-08-05T19:01:33.212Z,4.05
2022-08-05T19:03:57.515Z,4.43
2022-08-05T19:06:22.400Z,3.67
2022-08-05T19:08:58.159Z,3.83
2022-08-05T19:11:28.532Z,3.15
2022-08-05T19:14:15.196Z,6.13
2022-08-05T19:16:47.289Z,4.18
2022-08-05T19:19:11.144Z,5.28
2022-08-05T19:21:36.742Z,3.53
2022-08-05T19:24:07.482Z,6.35
2022-08-05T19:26:32.976Z,3.60
2022-08-05T19:28:57.308Z,3.78
2022-08-05T19:31:22.888Z,5.13
2022-08-05T19:33:48.550Z,5.13
2022-08-05T19:36:20.716Z,3.42
2022-08-05T19:38:45.827Z,3.25
2022-08-05T19:41:12.331Z,4.10
2022-08-05T19:44:05.375Z,3.95
2022-08-05T19:46:29.460Z,2.97
2022-08-05T19:48:54.568Z,3.72
2022-08-05T19:52:04.524Z,2.55
2022-08-05T19:54:12.893Z,4.07
2022-08-05T19:56:50.821Z,4.43
2022-08-05T19:59:51.577Z,5.72
2022-08-05T20:02:01.476Z,5.00
2022-08-05T20:04:26.579Z,3.45
2022-08-05T20:06:51.820Z,2.38
2022-08-05T20:09:15.795Z,3.45
2022-08-05T20:11:41.303Z,5.47
2022-08-05T20:14:14.668Z,3.58
2022-08-05T20:16:42.017Z,3.28
2022-08-05T20:19:08.652Z,4.50
2022-08-05T20:21:32.541Z,2.63
2022-08-05T20:23:57.384Z,3.28
2022-08-05T20:26:22.091Z,3.58
2022-08-05T20:28:48.698Z,2.25
2022-08-05T20:31:12.617Z,4.72
2022-08-05T20:33:36.390Z,3.65
2022-08-05T20:36:02.284Z,3.55
2022-08-05T20:38:27.335Z,3.40
2022-08-05T20:40:52.592Z,4.00
2022-08-05T20:43:33.265Z,3.63
2022-08-05T20:46:03.301Z,4.63
2022-08-05T20:48:27.012Z,4.72
2022-08-05T20:50:50.914Z,7.20
2022-08-05T20:53:36.531Z,6.18
2022-08-05T20:56:08.838Z,8.75
2022-08-05T20:58:33.196Z,6.20
2022-08-05T21:00:57.069Z,8.60
2022-08-05T21:03:20.921Z,5.82
2022-08-05T21:05:53.505Z,6.70
2022-08-05T21:08:20.108Z,7.32
2022-08-05T21:10:48.990Z,7.90
2022-08-05T21:13:15.905Z,4.50
2022-08-05T21:15:40.985Z,4.38
2022-08-05T21:18:08.340Z,4.32
2022-08-05T21:20:34.927Z,5.32
2022-08-05T21:22:59.473Z,4.25
2022-08-05T21:25:25.420Z,4.72
2022-08-05T21:27:57.918Z,5.43
2022-08-05T21:30:22.039Z,3.78
2022-08-05T21:32:47.756Z,4.38
2022-08-05T21:35:18.126Z,5.45
2022-08-05T21:37:53.948Z,5.75
2022-08-05T21:40:17.712Z,4.90
2022-08-05T21:42:45.137Z,3.00
2022-08-05T21:45:10.762Z,3.42
2022-08-05T21:47:56.125Z,5.03
2022-08-05T21:50:20.362Z,4.75
2022-08-05T21:52:47.406Z,4.95
2022-08-05T21:55:11.695Z,3.50
2022-08-05T21:57:42.782Z,5.82
2022-08-05T22:00:12.257Z,4.25
2022-08-05T22:02:38.984Z,3.15
2022-08-05T22:05:04.312Z,5.10
2022-08-05T22:07:39.439Z,4.00
2022-08-05T22:10:12.353Z,3.65
2022-08-05T22:12:40.310Z,3.72
2022-08-05T22:15:16.587Z,3.78
2022-08-05T22:17:56.324Z,3.10
2022-08-05T22:20:23.682Z,3.97
2022-08-05T22:23:16.927Z,3.33
2022-08-05T22:26:11.366Z,6.88
2022-08-05T22:28:35.668Z,3.40
2022-08-05T22:31:05.578Z,4.88
2022-08-05T22:33:57.050Z,3.95
2022-08-05T22:36:15.038Z,4.25
2022-08-05T22:38:39.196Z,3.72
2022-08-05T22:41:09.550Z,3.63
2022-08-05T22:43:36.884Z,3.92
2022-08-05T22:46:08.826Z,5.45
2022-08-05T22:48:38.016Z,4.25
2022-08-05T22:51:01.929Z,6.28
2022-08-05T22:53:35.607Z,6.07
2022-08-05T22:55:59.906Z,4.35
2022-08-05T22:58:28.457Z,7.43
2022-08-05T23:00:52.565Z,5.18
2022-08-05T23:03:22.251Z,4.93
2022-08-05T23:06:06.180Z,8.15
2022-08-05T23:08:30.719Z,4.65
2022-08-05T23:10:56.073Z,7.07
2022-08-05T23:13:19.852Z,5.22
2022-08-05T23:15:43.859Z,4.53
2022-08-05T23:18:16.076Z,3.67
2022-08-05T23:20:43.040Z,4.57
2022-08-05T23:23:09.010Z,2.83
2022-08-05T23:25:52.568Z,3.72
2022-08-05T23:28:17.269Z,5.80
2022-08-05T23:30:43.831Z,5.05
2022-08-05T23:33:16.335Z,2.30
2022-08-05T23:35:52.006Z,3.33
2022-08-05T23:38:19.199Z,2.25
2022-08-05T23:40:49.843Z,4.13
2022-08-05T23:43:24.773Z,2.67
2022-08-05T23:45:58.025Z,2.45
2022-08-05T23:48:22.419Z,3.67
2022-08-05T23:50:51.528Z,3.65
2022-08-05T23:53:22.974Z,3.88
2022-08-05T23:55:47.056Z,2.72
2022-08-05T23:58:31.678Z,2.47
